createdAt,value
2019-05-23T00:17:21.586Z,5.44
2019-05-23T00:19:51.251Z,5.41
2019-05-23T00:22:20.458Z,5.52
2019-05-23T00:24:49.608Z,5.42
2019-05-23T00:27:20.239Z,5.40
2019-05-23T00:29:51.390Z,5.54
2019-05-23T00:32:42.774Z,5.50
2019-05-23T00:35:11.922Z,5.53
2019-05-23T00:37:43.600Z,5.35
2019-05-23T00:40:15.818Z,5.41
2019-05-23T00:42:45.892Z,5.38
2019-05-23T00:45:15.428Z,5.37
2019-05-23T00:47:44.739Z,5.31
2019-05-23T00:50:16.509Z,5.04
2019-05-23T00:52:45.940Z,5.02
2019-05-23T00:55:16.486Z,5.15
2019-05-23T00:57:46.416Z,5.04
2019-05-23T01:00:19.335Z,5.09
2019-05-23T01:02:49.113Z,5.17
2019-05-23T01:05:18.729Z,5.13
2019-05-23T01:07:48.306Z,5.10
2019-05-23T01:10:18.862Z,5.15
2019-05-23T01:12:48.477Z,5.14
2019-05-23T01:15:21.006Z,5.03
2019-05-23T01:17:50.695Z,5.09
2019-05-23T01:20:23.631Z,5.01
2019-05-23T01:22:54.417Z,5.08
2019-05-23T01:25:24.153Z,5.01
2019-05-23T01:27:54.249Z,4.89
2019-05-23T01:30:27.982Z,4.96
2019-05-23T01:32:58.416Z,4.90
2019-05-23T01:35:27.800Z,4.87
2019-05-23T01:37:58.201Z,4.80
2019-05-23T01:40:27.656Z,4.86
2019-05-23T01:42:58.419Z,4.80
2019-05-23T01:45:28.029Z,4.74
2019-05-23T01:47:57.766Z,4.76
2019-05-23T01:50:27.042Z,4.80
2019-05-23T01:52:57.713Z,4.79
2019-05-23T01:55:27.354Z,4.74
2019-05-23T01:57:56.323Z,4.74
2019-05-23T02:00:27.932Z,4.67
2019-05-23T02:02:58.137Z,4.80
2019-05-23T02:05:27.642Z,4.79
2019-05-23T02:07:57.366Z,4.71
2019-05-23T02:10:26.987Z,4.73
2019-05-23T02:12:56.590Z,4.78
2019-05-23T02:15:25.948Z,4.75
2019-05-23T02:17:55.029Z,4.78
2019-05-23T02:20:24.702Z,4.77
2019-05-23T02:22:54.401Z,4.76
2019-05-23T02:25:24.307Z,4.66
2019-05-23T02:27:54.186Z,4.66
2019-05-23T02:30:34.604Z,4.68
2019-05-23T02:32:55.662Z,4.61
2019-05-23T02:35:25.219Z,4.68
2019-05-23T02:38:22.402Z,4.58
2019-05-23T02:41:13.026Z,4.55
2019-05-23T02:43:45.743Z,4.55
2019-05-23T02:46:24.272Z,4.57
2019-05-23T02:48:57.180Z,4.49
2019-05-23T02:51:29.289Z,4.38
2019-05-23T02:54:01.843Z,4.46
2019-05-23T02:56:34.635Z,4.52
2019-05-23T02:59:23.826Z,4.39
2019-05-23T03:02:50.796Z,4.39
2019-05-23T03:05:22.600Z,4.30
2019-05-23T03:07:53.942Z,4.29
2019-05-23T03:10:26.993Z,4.25
2019-05-23T03:12:58.581Z,4.28
2019-05-23T03:15:28.778Z,4.12
2019-05-23T03:18:00.673Z,4.14
2019-05-23T03:20:30.485Z,4.14
2019-05-23T03:23:04.092Z,4.15
2019-05-23T03:26:15.487Z,4.19
2019-05-23T03:28:44.391Z,4.15
2019-05-23T03:31:29.389Z,4.06
2019-05-23T03:33:52.112Z,4.22
2019-05-23T03:36:21.765Z,4.31
2019-05-23T03:38:51.369Z,4.19
2019-05-23T03:41:21.957Z,4.28
2019-05-23T03:43:50.957Z,4.26
2019-05-23T03:46:22.240Z,4.33
2019-05-23T03:48:53.092Z,4.32
2019-05-23T03:51:23.739Z,4.43
2019-05-23T03:53:54.528Z,4.50
2019-05-23T03:56:24.910Z,4.33
2019-05-23T03:58:56.202Z,4.50
2019-05-23T04:01:45.943Z,4.57
2019-05-23T04:03:58.597Z,4.54
2019-05-23T04:06:29.735Z,4.73
2019-05-23T04:08:58.670Z,4.76
2019-05-23T04:11:28.295Z,4.86
2019-05-23T04:13:57.580Z,4.85
2019-05-23T04:16:30.466Z,4.96
2019-05-23T04:18:56.991Z,4.98
2019-05-23T04:21:26.052Z,5.16
2019-05-23T04:23:55.045Z,5.35
2019-05-23T04:26:24.057Z,5.52
2019-05-23T04:28:53.667Z,5.74
2019-05-23T04:31:23.277Z,6.03
2019-05-23T04:33:52.459Z,6.31
2019-05-23T04:36:22.682Z,6.78
2019-05-23T04:38:51.732Z,7.16
2019-05-23T04:41:20.538Z,7.40
2019-05-23T04:43:49.494Z,7.53
2019-05-23T04:46:18.871Z,7.66
2019-05-23T04:48:47.796Z,7.48
2019-05-23T04:51:16.966Z,7.67
2019-05-23T04:53:45.868Z,7.76
2019-05-23T04:56:15.041Z,7.97
2019-05-23T04:58:44.490Z,8.15
2019-05-23T05:01:14.660Z,8.33
2019-05-23T05:03:46.373Z,8.40
2019-05-23T05:06:15.537Z,8.56
2019-05-23T05:08:44.635Z,8.71
2019-05-23T05:11:14.119Z,8.93
2019-05-23T05:13:44.112Z,9.05
2019-05-23T05:16:13.463Z,9.16
2019-05-23T05:18:43.230Z,9.30
2019-05-23T05:21:12.338Z,9.37
2019-05-23T05:24:18.644Z,9.39
2019-05-23T05:26:47.590Z,9.39
2019-05-23T05:29:16.539Z,9.36
2019-05-23T05:31:45.763Z,9.61
2019-05-23T05:34:15.209Z,9.78
2019-05-23T05:36:44.223Z,10.01
2019-05-23T05:39:13.817Z,10.33
2019-05-23T05:41:43.305Z,10.58
2019-05-23T05:44:13.190Z,10.55
2019-05-23T05:46:42.869Z,11.04
2019-05-23T05:49:12.150Z,11.60
2019-05-23T05:51:41.183Z,11.60
2019-05-23T05:54:10.349Z,12.18
2019-05-23T05:56:39.179Z,12.56
2019-05-23T05:59:08.342Z,12.50
2019-05-23T06:01:37.343Z,13.30
2019-05-23T06:04:06.632Z,14.10
2019-05-23T06:06:43.950Z,14.49
2019-05-23T06:09:20.435Z,14.74
2019-05-23T06:11:49.620Z,15.25
2019-05-23T06:14:28.178Z,19.00
2019-05-23T06:16:57.154Z,19.70
2019-05-23T06:19:26.184Z,19.08
2019-05-23T06:21:55.511Z,19.21
2019-05-23T06:24:42.711Z,17.71
2019-05-23T06:26:55.535Z,14.49
2019-05-23T06:29:25.247Z,13.26
2019-05-23T06:31:54.396Z,13.37
2019-05-23T06:34:23.520Z,13.13
2019-05-23T06:36:53.051Z,13.34
2019-05-23T06:39:22.947Z,13.44
2019-05-23T06:41:51.955Z,13.17
2019-05-23T06:44:21.494Z,13.71
2019-05-23T06:46:50.435Z,13.74
2019-05-23T06:49:19.478Z,14.04
2019-05-23T06:51:48.574Z,14.14
2019-05-23T06:54:17.664Z,14.07
2019-05-23T06:56:46.771Z,14.08
2019-05-23T06:59:15.583Z,13.71
2019-05-23T07:01:44.391Z,14.20
2019-05-23T07:04:13.368Z,13.87
2019-05-23T07:06:42.479Z,13.79
2019-05-23T07:09:15.596Z,14.28
2019-05-23T07:11:44.733Z,14.52
2019-05-23T07:14:13.702Z,14.65
2019-05-23T07:16:43.241Z,14.83
2019-05-23T07:19:12.886Z,14.70
2019-05-23T07:21:42.201Z,14.60
2019-05-23T07:24:11.289Z,14.74
2019-05-23T07:26:40.817Z,14.88
2019-05-23T07:29:11.135Z,15.15
2019-05-23T07:31:40.146Z,15.08
2019-05-23T07:34:09.004Z,15.26
2019-05-23T07:36:38.278Z,15.39
2019-05-23T07:39:11.485Z,15.41
2019-05-23T07:41:39.635Z,15.73
2019-05-23T07:44:08.748Z,15.87
2019-05-23T07:46:37.665Z,16.10
2019-05-23T07:49:06.745Z,15.96
2019-05-23T07:51:35.902Z,15.69
2019-05-23T07:54:12.374Z,15.75
2019-05-23T07:56:41.402Z,15.74
2019-05-23T07:59:10.292Z,16.10
2019-05-23T08:01:41.763Z,16.39
2019-05-23T08:04:21.516Z,16.60
2019-05-23T08:06:42.063Z,16.56
2019-05-23T08:09:11.523Z,16.80
2019-05-23T08:11:40.365Z,17.02
2019-05-23T08:14:11.986Z,16.69
2019-05-23T08:16:40.398Z,16.79
2019-05-23T08:19:09.347Z,16.96
2019-05-23T08:21:38.539Z,17.22
2019-05-23T08:24:08.120Z,17.05
2019-05-23T08:26:37.511Z,17.05
2019-05-23T08:29:25.343Z,17.06
2019-05-23T08:31:37.766Z,17.42
2019-05-23T08:34:07.408Z,17.05
2019-05-23T08:36:36.497Z,17.15
2019-05-23T08:39:07.614Z,17.55
2019-05-23T08:41:36.927Z,17.72
2019-05-23T08:44:06.167Z,17.63
2019-05-23T08:46:35.287Z,17.65
2019-05-23T08:49:04.963Z,17.64
2019-05-23T08:51:34.559Z,17.51
2019-05-23T08:54:03.551Z,17.87
2019-05-23T08:56:32.893Z,17.97
2019-05-23T08:59:01.943Z,17.68
2019-05-23T09:01:31.334Z,18.07
2019-05-23T09:04:00.899Z,18.18
2019-05-23T09:06:30.796Z,17.63
2019-05-23T09:08:59.919Z,18.03
2019-05-23T09:11:28.787Z,18.33
2019-05-23T09:13:57.866Z,18.38
2019-05-23T09:16:26.803Z,18.81
2019-05-23T09:18:55.798Z,18.66
2019-05-23T09:21:24.984Z,18.34
2019-05-23T09:23:53.777Z,18.84
2019-05-23T09:26:23.409Z,18.47
2019-05-23T09:28:52.513Z,18.72
2019-05-23T09:31:22.684Z,18.80
2019-05-23T09:33:51.655Z,18.69
2019-05-23T09:36:20.837Z,19.26
2019-05-23T09:38:49.792Z,19.45
2019-05-23T09:41:18.790Z,19.47
2019-05-23T09:43:48.107Z,19.15
2019-05-23T09:46:17.123Z,19.31
2019-05-23T09:48:46.082Z,19.57
2019-05-23T09:51:15.286Z,19.97
2019-05-23T09:53:47.365Z,19.39
2019-05-23T09:56:15.154Z,19.42
2019-05-23T09:58:44.110Z,20.13
2019-05-23T10:01:14.543Z,19.67
2019-05-23T10:03:43.460Z,19.66
2019-05-23T10:06:12.425Z,19.30
2019-05-23T10:08:41.425Z,19.68
2019-05-23T10:11:11.580Z,19.12
2019-05-23T10:13:40.400Z,19.75
2019-05-23T10:16:10.608Z,19.64
2019-05-23T10:18:41.324Z,19.74
2019-05-23T10:21:10.462Z,20.39
2019-05-23T10:23:39.277Z,20.16
2019-05-23T10:26:08.396Z,20.83
2019-05-23T10:28:37.261Z,20.17
2019-05-23T10:31:08.034Z,20.23
2019-05-23T10:33:37.304Z,20.57
2019-05-23T10:36:06.600Z,19.77
2019-05-23T10:38:35.476Z,19.58
2019-05-23T10:41:07.360Z,20.12
2019-05-23T10:43:36.309Z,20.30
2019-05-23T10:46:05.486Z,20.10
2019-05-23T10:48:34.559Z,20.14
2019-05-23T10:51:03.839Z,20.53
2019-05-23T10:53:32.774Z,20.22
2019-05-23T10:56:01.629Z,20.12
2019-05-23T10:58:30.975Z,20.24
2019-05-23T11:00:59.922Z,19.86
2019-05-23T11:03:29.705Z,20.75
2019-05-23T11:06:13.369Z,20.50
2019-05-23T11:08:30.766Z,20.44
2019-05-23T11:11:00.156Z,20.73
2019-05-23T11:13:29.786Z,20.78
2019-05-23T11:15:59.031Z,20.19
2019-05-23T11:18:27.879Z,20.39
2019-05-23T11:20:56.781Z,20.60
2019-05-23T11:23:30.616Z,21.20
2019-05-23T11:26:01.495Z,20.07
2019-05-23T11:28:31.659Z,20.49
2019-05-23T11:31:01.681Z,20.88
2019-05-23T11:33:30.455Z,20.94
2019-05-23T11:35:59.506Z,20.98
2019-05-23T11:38:28.864Z,20.77
2019-05-23T11:40:57.861Z,21.50
2019-05-23T11:43:27.252Z,21.05
2019-05-23T11:46:04.344Z,20.30
2019-05-23T11:48:34.739Z,20.01
2019-05-23T11:51:04.119Z,20.80
2019-05-23T11:53:36.025Z,20.36
2019-05-23T11:56:05.736Z,20.33
2019-05-23T11:58:34.849Z,20.00
2019-05-23T12:01:21.260Z,20.54
2019-05-23T12:03:55.094Z,20.61
2019-05-23T12:06:26.649Z,21.28
2019-05-23T12:08:55.658Z,20.79
2019-05-23T12:11:30.658Z,20.63
2019-05-23T12:13:59.778Z,21.04
2019-05-23T12:16:28.769Z,21.53
2019-05-23T12:18:57.645Z,21.59
2019-05-23T12:21:26.782Z,21.59
2019-05-23T12:23:55.654Z,21.35
2019-05-23T12:26:24.905Z,21.38
2019-05-23T12:28:53.835Z,21.79
2019-05-23T12:31:23.470Z,22.24
2019-05-23T12:33:52.430Z,21.81
2019-05-23T12:36:21.765Z,22.43
2019-05-23T12:38:51.134Z,21.60
2019-05-23T12:41:20.129Z,21.77
2019-05-23T12:43:52.886Z,21.85
2019-05-23T12:46:22.002Z,21.95
2019-05-23T12:49:09.990Z,21.43
2019-05-23T12:54:09.017Z,21.36
2019-05-23T12:56:38.222Z,21.23
2019-05-23T12:59:08.485Z,20.74
2019-05-23T13:01:39.449Z,20.57
2019-05-23T13:04:10.995Z,21.21
2019-05-23T13:06:40.511Z,21.19
2019-05-23T13:09:10.380Z,20.31
2019-05-23T13:11:39.375Z,21.14
2019-05-23T13:14:09.202Z,21.30
2019-05-23T13:16:38.270Z,21.61
2019-05-23T13:19:07.146Z,21.74
2019-05-23T13:21:36.118Z,21.20
2019-05-23T13:24:05.356Z,21.30
2019-05-23T13:26:34.281Z,21.15
2019-05-23T13:29:03.155Z,20.97
2019-05-23T13:31:32.101Z,20.85
2019-05-23T13:34:01.190Z,21.14
2019-05-23T13:36:30.010Z,21.10
2019-05-23T13:38:59.171Z,20.73
2019-05-23T13:41:28.316Z,20.61
2019-05-23T13:43:57.255Z,20.65
2019-05-23T13:46:26.275Z,20.72
2019-05-23T13:48:55.067Z,20.48
2019-05-23T13:51:24.185Z,20.19
2019-05-23T13:53:52.969Z,20.02
2019-05-23T13:56:21.998Z,20.07
2019-05-23T13:58:50.858Z,20.39
2019-05-23T14:01:19.671Z,20.35
2019-05-23T14:03:49.810Z,20.15
2019-05-23T14:06:19.598Z,20.31
2019-05-23T14:08:48.516Z,20.25
2019-05-23T14:11:18.108Z,19.97
2019-05-23T14:13:47.532Z,20.00
2019-05-23T14:16:16.884Z,20.19
2019-05-23T14:18:48.897Z,20.28
2019-05-23T14:21:17.745Z,20.22
2019-05-23T14:23:46.852Z,20.33
2019-05-23T14:26:16.278Z,20.55
2019-05-23T14:28:45.235Z,21.01
2019-05-23T14:31:15.942Z,20.84
2019-05-23T14:33:54.317Z,20.64
2019-05-23T14:36:32.511Z,20.95
2019-05-23T14:39:04.950Z,20.95
2019-05-23T14:41:45.031Z,21.11
2019-05-23T14:44:12.391Z,20.90
2019-05-23T14:46:50.370Z,20.94
2019-05-23T14:49:24.787Z,20.61
2019-05-23T14:52:09.756Z,21.00
2019-05-23T14:54:41.161Z,20.54
2019-05-23T14:57:11.109Z,20.74
2019-05-23T14:59:40.208Z,20.62
2019-05-23T15:02:14.456Z,20.40
2019-05-23T15:04:43.445Z,20.87
2019-05-23T15:07:12.229Z,20.77
2019-05-23T15:09:41.018Z,21.28
2019-05-23T15:12:10.636Z,21.25
2019-05-23T15:14:39.453Z,21.32
2019-05-23T15:17:08.486Z,21.10
2019-05-23T15:19:42.067Z,21.03
2019-05-23T15:22:08.040Z,20.82
2019-05-23T15:24:37.357Z,20.64
2019-05-23T15:27:06.328Z,20.65
2019-05-23T15:29:35.212Z,20.98
2019-05-23T15:32:04.096Z,20.58
2019-05-23T15:34:35.266Z,21.13
2019-05-23T15:37:03.465Z,21.34
2019-05-23T15:39:32.362Z,21.06
2019-05-23T15:42:01.208Z,20.86
2019-05-23T15:44:31.201Z,21.43
2019-05-23T15:47:17.855Z,20.91
2019-05-23T15:49:48.872Z,20.29
2019-05-23T15:52:43.075Z,20.73
2019-05-23T15:55:34.654Z,20.44
2019-05-23T15:58:11.071Z,20.55
2019-05-23T16:01:08.221Z,21.11
2019-05-23T16:03:49.621Z,21.00
2019-05-23T16:06:20.459Z,21.16
2019-05-23T16:08:50.142Z,21.33
2019-05-23T16:11:19.696Z,21.61
2019-05-23T16:13:48.633Z,22.30
2019-05-23T16:16:17.738Z,21.50
2019-05-23T16:18:47.511Z,20.42
2019-05-23T16:21:18.811Z,20.38
2019-05-23T16:23:47.880Z,20.94
2019-05-23T16:26:17.584Z,21.59
2019-05-23T16:28:46.449Z,22.69
2019-05-23T16:31:15.343Z,22.91
2019-05-23T16:33:45.460Z,23.68
2019-05-23T16:36:14.669Z,22.84
2019-05-23T16:38:44.267Z,22.26
2019-05-23T16:41:13.507Z,22.38
2019-05-23T16:43:42.416Z,22.02
2019-05-23T16:46:11.551Z,21.84
2019-05-23T16:48:40.583Z,21.12
2019-05-23T16:51:09.719Z,20.46
2019-05-23T16:53:39.258Z,21.19
2019-05-23T16:56:16.193Z,21.45
2019-05-23T16:59:04.236Z,20.82
2019-05-23T17:01:57.063Z,20.89
2019-05-23T17:04:47.809Z,21.03
2019-05-23T17:07:30.400Z,22.01
2019-05-23T17:10:09.550Z,21.05
2019-05-23T17:12:51.908Z,20.98
2019-05-23T17:15:34.755Z,21.35
2019-05-23T17:18:17.800Z,21.54
2019-05-23T17:21:08.565Z,21.26
2019-05-23T17:23:54.724Z,21.27
2019-05-23T17:26:51.864Z,21.36
2019-05-23T17:29:42.319Z,21.20
2019-05-23T17:32:13.001Z,21.04
2019-05-23T17:34:42.304Z,20.32
2019-05-23T17:37:12.269Z,20.39
2019-05-23T17:39:42.582Z,20.85
2019-05-23T17:42:11.793Z,20.81
2019-05-23T17:44:40.700Z,20.64
2019-05-23T17:47:09.920Z,20.55
2019-05-23T17:49:38.669Z,20.11
2019-05-23T17:52:08.598Z,20.18
2019-05-23T17:54:37.475Z,20.44
2019-05-23T17:57:06.580Z,20.13
2019-05-23T17:59:35.371Z,20.37
2019-05-23T18:02:05.799Z,20.08
2019-05-23T18:04:34.584Z,19.60
2019-05-23T18:07:03.970Z,19.98
2019-05-23T18:09:33.046Z,19.64
2019-05-23T18:12:03.694Z,20.04
2019-05-23T18:14:32.775Z,19.99
2019-05-23T18:17:02.095Z,19.59
2019-05-23T18:19:31.076Z,19.31
2019-05-23T18:22:00.580Z,19.19
2019-05-23T18:24:29.655Z,19.04
2019-05-23T18:26:58.722Z,19.00
2019-05-23T18:29:27.914Z,19.02
2019-05-23T18:31:57.261Z,18.86
2019-05-23T18:34:26.745Z,18.73
2019-05-23T18:36:56.100Z,18.65
2019-05-23T18:39:26.296Z,18.58
2019-05-23T18:41:55.637Z,18.52
2019-05-23T18:44:25.086Z,18.31
2019-05-23T18:46:55.717Z,18.29
2019-05-23T18:49:25.726Z,18.23
2019-05-23T18:51:54.680Z,18.15
2019-05-23T18:54:23.564Z,18.06
2019-05-23T18:56:52.686Z,17.91
2019-05-23T18:59:23.430Z,17.67
2019-05-23T19:01:52.262Z,17.73
2019-05-23T19:04:21.590Z,17.58
2019-05-23T19:06:51.267Z,17.52
2019-05-23T19:09:21.738Z,17.48
2019-05-23T19:11:50.712Z,17.09
2019-05-23T19:14:19.908Z,17.04
2019-05-23T19:16:48.953Z,16.86
2019-05-23T19:19:18.363Z,16.59
2019-05-23T19:21:47.898Z,16.34
2019-05-23T19:24:17.414Z,16.45
2019-05-23T19:26:48.371Z,16.30
2019-05-23T19:36:27.626Z,15.74
2019-05-23T19:38:56.480Z,15.62
2019-05-23T19:41:45.781Z,15.39
2019-05-23T19:44:14.571Z,15.40
2019-05-23T19:46:48.546Z,15.07
2019-05-23T19:49:17.651Z,15.07
2019-05-23T19:51:46.739Z,14.70
2019-05-23T19:54:15.968Z,14.85
2019-05-23T19:56:44.884Z,14.62
2019-05-23T19:59:20.765Z,14.50
2019-05-23T20:02:08.023Z,14.32
2019-05-23T20:04:39.826Z,14.17
2019-05-23T20:07:15.630Z,14.31
2019-05-23T20:09:44.633Z,14.34
2019-05-23T20:12:14.943Z,14.33
2019-05-23T20:14:43.939Z,14.10
2019-05-23T20:17:12.748Z,14.02
2019-05-23T20:19:41.811Z,13.98
2019-05-23T20:22:11.496Z,13.79
2019-05-23T20:24:40.563Z,13.61
2019-05-23T20:27:09.980Z,13.62
2019-05-23T20:29:39.438Z,13.72
2019-05-23T20:32:09.002Z,13.58
2019-05-23T20:34:37.811Z,13.18
2019-05-23T20:37:10.159Z,13.38
2019-05-23T20:39:38.817Z,13.14
2019-05-23T20:42:11.611Z,13.00
2019-05-23T20:44:38.904Z,12.79
2019-05-23T20:47:09.051Z,12.97
2019-05-23T20:49:39.541Z,12.98
2019-05-23T20:52:09.240Z,12.85
2019-05-23T20:54:38.111Z,12.78
2019-05-23T20:57:08.743Z,12.59
2019-05-23T20:59:37.668Z,12.90
2019-05-23T21:02:07.148Z,12.78
2019-05-23T21:04:36.064Z,12.69
2019-05-23T21:07:05.227Z,12.67
2019-05-23T21:09:34.184Z,12.39
2019-05-23T21:12:04.190Z,12.47
2019-05-23T21:14:33.280Z,12.27
2019-05-23T21:17:02.355Z,12.20
2019-05-23T21:19:31.531Z,12.30
2019-05-23T21:22:00.442Z,12.10
2019-05-23T21:24:31.542Z,12.11
2019-05-23T21:27:00.653Z,12.17
2019-05-23T21:29:30.010Z,12.03
2019-05-23T21:31:59.008Z,12.07
2019-05-23T21:34:28.245Z,11.90
2019-05-23T21:37:07.264Z,11.66
2019-05-23T21:39:35.832Z,11.92
2019-05-23T21:42:05.212Z,11.87
2019-05-23T21:44:34.195Z,11.73
2019-05-23T21:47:03.287Z,11.81
2019-05-23T21:49:32.353Z,11.65
2019-05-23T21:52:01.195Z,11.65
2019-05-23T21:54:30.203Z,11.82
2019-05-23T21:56:59.085Z,11.67
2019-05-23T21:59:28.063Z,11.66
2019-05-23T22:02:22.253Z,11.66
2019-05-23T22:05:04.889Z,11.56
2019-05-23T22:07:34.334Z,11.73
2019-05-23T22:10:06.745Z,11.57
2019-05-23T22:12:36.073Z,11.57
2019-05-23T22:15:06.246Z,11.71
2019-05-23T22:17:35.310Z,11.88
2019-05-23T22:20:09.709Z,11.38
2019-05-23T22:26:11.582Z,11.31
2019-05-23T22:28:47.289Z,11.71
2019-05-23T22:31:23.167Z,11.72
2019-05-23T22:34:46.030Z,11.33
2019-05-23T22:37:25.273Z,11.22
